sensor_id;sensor_type;location;lat;lon;timestamp;P1;durP1;ratioP1;P2;durP2;ratioP2
75059;SDS011;63640;59.264;18.116;2022-09-21T00:01:17;5.82;;;2.47;;
75059;SDS011;63640;59.264;18.116;2022-09-21T00:03:45;5.50;;;2.20;;
75059;SDS011;63640;59.264;18.116;2022-09-21T00:06:15;7.25;;;2.67;;
75059;SDS011;63640;59.264;18.116;2022-09-21T00:08:42;8.10;;;2.55;;
75059;SDS011;63640;59.264;18.116;2022-09-21T00:11:12;6.40;;;2.58;;
75059;SDS011;63640;59.264;18.116;2022-09-21T00:13:39;5.32;;;2.25;;
75059;SDS011;63640;59.264;18.116;2022-09-21T00:16:06;8.07;;;2.63;;
75059;SDS011;63640;59.264;18.116;2022-09-21T00:18:32;7.93;;;1.90;;
75059;SDS011;63640;59.264;18.116;2022-09-21T00:20:57;6.65;;;1.95;;
75059;SDS011;63640;59.264;18.116;2022-09-21T00:23:26;5.90;;;1.83;;
75059;SDS011;63640;59.264;18.116;2022-09-21T00:25:52;5.18;;;2.03;;
75059;SDS011;63640;59.264;18.116;2022-09-21T00:28:17;6.55;;;2.30;;
75059;SDS011;63640;59.264;18.116;2022-09-21T00:30:42;4.50;;;1.70;;
75059;SDS011;63640;59.264;18.116;2022-09-21T00:33:08;6.60;;;2.17;;
75059;SDS011;63640;59.264;18.116;2022-09-21T00:35:36;4.97;;;1.90;;
75059;SDS011;63640;59.264;18.116;2022-09-21T00:38:02;6.60;;;2.15;;
75059;SDS011;63640;59.264;18.116;2022-09-21T00:40:28;6.60;;;2.00;;
75059;SDS011;63640;59.264;18.116;2022-09-21T00:43:08;10.75;;;2.85;;
75059;SDS011;63640;59.264;18.116;2022-09-21T00:45:35;4.68;;;1.90;;
75059;SDS011;63640;59.264;18.116;2022-09-21T00:48:02;6.63;;;2.30;;
75059;SDS011;63640;59.264;18.116;2022-09-21T00:50:28;5.93;;;2.47;;
75059;SDS011;63640;59.264;18.116;2022-09-21T00:52:54;7.00;;;2.17;;
75059;SDS011;63640;59.264;18.116;2022-09-21T00:55:22;6.95;;;2.30;;
75059;SDS011;63640;59.264;18.116;2022-09-21T00:57:57;9.82;;;2.92;;
75059;SDS011;63640;59.264;18.116;2022-09-21T01:00:24;5.40;;;1.80;;
75059;SDS011;63640;59.264;18.116;2022-09-21T01:02:50;6.40;;;2.50;;
75059;SDS011;63640;59.264;18.116;2022-09-21T01:05:15;5.13;;;2.33;;
75059;SDS011;63640;59.264;18.116;2022-09-21T01:07:45;4.50;;;2.30;;
75059;SDS011;63640;59.264;18.116;2022-09-21T01:10:12;9.50;;;2.20;;
75059;SDS011;63640;59.264;18.116;2022-09-21T01:12:54;5.15;;;2.10;;
75059;SDS011;63640;59.264;18.116;2022-09-21T01:18:26;5.05;;;2.00;;
75059;SDS011;63640;59.264;18.116;2022-09-21T01:29:47;7.72;;;2.03;;
75059;SDS011;63640;59.264;18.116;2022-09-21T01:34:49;6.68;;;2.08;;
75059;SDS011;63640;59.264;18.116;2022-09-21T01:37:20;6.90;;;1.90;;
75059;SDS011;63640;59.264;18.116;2022-09-21T01:39:48;5.40;;;1.75;;
75059;SDS011;63640;59.264;18.116;2022-09-21T01:42:17;4.82;;;1.70;;
75059;SDS011;63640;59.264;18.116;2022-09-21T01:44:43;11.98;;;2.28;;
75059;SDS011;63640;59.264;18.116;2022-09-21T01:47:10;5.32;;;2.30;;
75059;SDS011;63640;59.264;18.116;2022-09-21T01:49:40;5.75;;;2.13;;
75059;SDS011;63640;59.264;18.116;2022-09-21T01:52:15;6.80;;;1.90;;
75059;SDS011;63640;59.264;18.116;2022-09-21T01:54:49;5.45;;;1.80;;
75059;SDS011;63640;59.264;18.116;2022-09-21T01:57:22;6.32;;;1.67;;
75059;SDS011;63640;59.264;18.116;2022-09-21T01:59:57;6.50;;;1.90;;
75059;SDS011;63640;59.264;18.116;2022-09-21T02:02:35;4.72;;;1.60;;
75059;SDS011;63640;59.264;18.116;2022-09-21T02:05:05;5.68;;;1.95;;
75059;SDS011;63640;59.264;18.116;2022-09-21T02:07:31;5.45;;;1.75;;
75059;SDS011;63640;59.264;18.116;2022-09-21T02:09:58;5.55;;;1.70;;
75059;SDS011;63640;59.264;18.116;2022-09-21T02:12:25;7.53;;;1.98;;
75059;SDS011;63640;59.264;18.116;2022-09-21T02:14:51;6.32;;;1.70;;
75059;SDS011;63640;59.264;18.116;2022-09-21T02:20:13;4.90;;;2.08;;
75059;SDS011;63640;59.264;18.116;2022-09-21T02:23:06;8.73;;;2.08;;
75059;SDS011;63640;59.264;18.116;2022-09-21T02:25:40;4.65;;;1.80;;
75059;SDS011;63640;59.264;18.116;2022-09-21T02:31:09;6.32;;;1.85;;
75059;SDS011;63640;59.264;18.116;2022-09-21T02:34:23;6.85;;;2.20;;
75059;SDS011;63640;59.264;18.116;2022-09-21T02:36:50;6.63;;;1.80;;
75059;SDS011;63640;59.264;18.116;2022-09-21T02:39:20;5.55;;;1.48;;
75059;SDS011;63640;59.264;18.116;2022-09-21T02:45:03;5.68;;;1.92;;
75059;SDS011;63640;59.264;18.116;2022-09-21T02:49:57;4.15;;;1.50;;
75059;SDS011;63640;59.264;18.116;2022-09-21T02:52:29;5.47;;;1.70;;
75059;SDS011;63640;59.264;18.116;2022-09-21T02:54:55;4.80;;;1.70;;
75059;SDS011;63640;59.264;18.116;2022-09-21T02:57:21;4.25;;;1.80;;
75059;SDS011;63640;59.264;18.116;2022-09-21T02:59:48;4.35;;;1.55;;
75059;SDS011;63640;59.264;18.116;2022-09-21T03:02:14;4.00;;;1.70;;
75059;SDS011;63640;59.264;18.116;2022-09-21T03:04:39;5.25;;;1.67;;
75059;SDS011;63640;59.264;18.116;2022-09-21T03:07:08;3.97;;;1.73;;
75059;SDS011;63640;59.264;18.116;2022-09-21T03:09:34;5.10;;;1.77;;
75059;SDS011;63640;59.264;18.116;2022-09-21T03:12:00;4.88;;;1.38;;
75059;SDS011;63640;59.264;18.116;2022-09-21T03:14:25;7.22;;;1.60;;
75059;SDS011;63640;59.264;18.116;2022-09-21T03:16:51;5.28;;;1.60;;
75059;SDS011;63640;59.264;18.116;2022-09-21T03:19:18;7.05;;;1.88;;
75059;SDS011;63640;59.264;18.116;2022-09-21T03:21:43;4.53;;;1.65;;
75059;SDS011;63640;59.264;18.116;2022-09-21T03:24:08;4.20;;;1.52;;
75059;SDS011;63640;59.264;18.116;2022-09-21T03:26:34;7.38;;;1.90;;
75059;SDS011;63640;59.264;18.116;2022-09-21T03:29:00;5.18;;;1.92;;
75059;SDS011;63640;59.264;18.116;2022-09-21T03:31:26;3.20;;;1.30;;
75059;SDS011;63640;59.264;18.116;2022-09-21T03:33:51;5.93;;;1.85;;
75059;SDS011;63640;59.264;18.116;2022-09-21T03:36:16;5.03;;;1.70;;
75059;SDS011;63640;59.264;18.116;2022-09-21T03:38:42;5.25;;;1.70;;
75059;SDS011;63640;59.264;18.116;2022-09-21T03:41:08;4.47;;;1.80;;
75059;SDS011;63640;59.264;18.116;2022-09-21T03:43:33;4.65;;;1.63;;
75059;SDS011;63640;59.264;18.116;2022-09-21T03:45:59;5.03;;;1.60;;
75059;SDS011;63640;59.264;18.116;2022-09-21T03:48:24;10.43;;;1.90;;
75059;SDS011;63640;59.264;18.116;2022-09-21T03:50:50;4.30;;;1.60;;
75059;SDS011;63640;59.264;18.116;2022-09-21T03:53:15;5.53;;;2.13;;
75059;SDS011;63640;59.264;18.116;2022-09-21T03:55:40;5.40;;;1.80;;
75059;SDS011;63640;59.264;18.116;2022-09-21T03:58:06;6.05;;;1.88;;
75059;SDS011;63640;59.264;18.116;2022-09-21T04:00:33;4.72;;;1.40;;
75059;SDS011;63640;59.264;18.116;2022-09-21T04:02:58;3.50;;;1.33;;
75059;SDS011;63640;59.264;18.116;2022-09-21T04:05:24;5.65;;;1.70;;
75059;SDS011;63640;59.264;18.116;2022-09-21T04:07:50;5.82;;;1.50;;
75059;SDS011;63640;59.264;18.116;2022-09-21T04:10:16;5.70;;;1.77;;
75059;SDS011;63640;59.264;18.116;2022-09-21T04:12:44;4.40;;;1.65;;
75059;SDS011;63640;59.264;18.116;2022-09-21T04:15:11;6.38;;;1.85;;
75059;SDS011;63640;59.264;18.116;2022-09-21T04:17:37;5.25;;;1.80;;
75059;SDS011;63640;59.264;18.116;2022-09-21T04:20:02;5.05;;;1.77;;
75059;SDS011;63640;59.264;18.116;2022-09-21T04:22:28;4.22;;;1.88;;
75059;SDS011;63640;59.264;18.116;2022-09-21T04:24:55;6.22;;;1.55;;
75059;SDS011;63640;59.264;18.116;2022-09-21T04:27:20;4.70;;;1.70;;
75059;SDS011;63640;59.264;18.116;2022-09-21T04:29:46;4.97;;;1.70;;
75059;SDS011;63640;59.264;18.116;2022-09-21T04:32:11;4.55;;;1.50;;
75059;SDS011;63640;59.264;18.116;2022-09-21T04:34:37;3.75;;;1.45;;
75059;SDS011;63640;59.264;18.116;2022-09-21T04:37:05;3.47;;;1.25;;
75059;SDS011;63640;59.264;18.116;2022-09-21T04:39:32;6.22;;;2.08;;
75059;SDS011;63640;59.264;18.116;2022-09-21T04:41:58;4.95;;;1.88;;
75059;SDS011;63640;59.264;18.116;2022-09-21T04:44:23;4.30;;;1.48;;
75059;SDS011;63640;59.264;18.116;2022-09-21T04:46:48;5.10;;;1.48;;
75059;SDS011;63640;59.264;18.116;2022-09-21T04:49:14;6.10;;;1.50;;
75059;SDS011;63640;59.264;18.116;2022-09-21T04:51:40;5.05;;;1.80;;
75059;SDS011;63640;59.264;18.116;2022-09-21T04:54:05;5.90;;;1.58;;
75059;SDS011;63640;59.264;18.116;2022-09-21T04:56:31;4.50;;;1.50;;
75059;SDS011;63640;59.264;18.116;2022-09-21T04:58:57;4.90;;;1.60;;
75059;SDS011;63640;59.264;18.116;2022-09-21T05:01:22;4.53;;;1.50;;
75059;SDS011;63640;59.264;18.116;2022-09-21T05:03:48;6.35;;;1.30;;
75059;SDS011;63640;59.264;18.116;2022-09-21T05:06:13;5.85;;;1.40;;
75059;SDS011;63640;59.264;18.116;2022-09-21T05:08:39;4.10;;;1.58;;
75059;SDS011;63640;59.264;18.116;2022-09-21T05:11:23;4.88;;;1.70;;
75059;SDS011;63640;59.264;18.116;2022-09-21T05:13:51;7.68;;;2.17;;
75059;SDS011;63640;59.264;18.116;2022-09-21T05:16:17;6.05;;;1.60;;
75059;SDS011;63640;59.264;18.116;2022-09-21T05:18:43;6.47;;;1.60;;
75059;SDS011;63640;59.264;18.116;2022-09-21T05:21:10;6.07;;;1.63;;
75059;SDS011;63640;59.264;18.116;2022-09-21T05:23:36;4.82;;;1.30;;
75059;SDS011;63640;59.264;18.116;2022-09-21T05:26:02;4.78;;;1.40;;
75059;SDS011;63640;59.264;18.116;2022-09-21T05:28:27;5.07;;;1.70;;
75059;SDS011;63640;59.264;18.116;2022-09-21T05:34:22;8.02;;;1.80;;
75059;SDS011;63640;59.264;18.116;2022-09-21T05:39:32;5.97;;;2.05;;
75059;SDS011;63640;59.264;18.116;2022-09-21T05:41:57;9.68;;;1.85;;
75059;SDS011;63640;59.264;18.116;2022-09-21T05:44:25;5.90;;;1.75;;
75059;SDS011;63640;59.264;18.116;2022-09-21T05:52:30;7.75;;;1.73;;
75059;SDS011;63640;59.264;18.116;2022-09-21T05:55:11;6.13;;;1.30;;
75059;SDS011;63640;59.264;18.116;2022-09-21T06:05:40;4.63;;;1.60;;
75059;SDS011;63640;59.264;18.116;2022-09-21T06:08:07;5.85;;;1.90;;
75059;SDS011;63640;59.264;18.116;2022-09-21T06:10:33;7.57;;;1.77;;
75059;SDS011;63640;59.264;18.116;2022-09-21T06:12:59;6.93;;;2.10;;
75059;SDS011;63640;59.264;18.116;2022-09-21T06:15:24;7.20;;;2.00;;
75059;SDS011;63640;59.264;18.116;2022-09-21T06:17:50;5.43;;;1.88;;
75059;SDS011;63640;59.264;18.116;2022-09-21T06:20:15;7.00;;;2.30;;
75059;SDS011;63640;59.264;18.116;2022-09-21T06:22:41;5.70;;;2.10;;
75059;SDS011;63640;59.264;18.116;2022-09-21T06:25:06;12.80;;;1.95;;
75059;SDS011;63640;59.264;18.116;2022-09-21T06:27:37;11.25;;;2.30;;
75059;SDS011;63640;59.264;18.116;2022-09-21T06:30:03;7.82;;;1.75;;
75059;SDS011;63640;59.264;18.116;2022-09-21T06:32:29;9.60;;;1.92;;
75059;SDS011;63640;59.264;18.116;2022-09-21T06:34:55;9.77;;;2.20;;
75059;SDS011;63640;59.264;18.116;2022-09-21T06:37:20;8.70;;;2.00;;
75059;SDS011;63640;59.264;18.116;2022-09-21T06:39:45;7.22;;;1.85;;
75059;SDS011;63640;59.264;18.116;2022-09-21T06:42:11;6.93;;;2.40;;
75059;SDS011;63640;59.264;18.116;2022-09-21T06:44:36;7.75;;;2.40;;
75059;SDS011;63640;59.264;18.116;2022-09-21T06:47:02;6.80;;;2.15;;
75059;SDS011;63640;59.264;18.116;2022-09-21T06:49:27;6.35;;;1.92;;
75059;SDS011;63640;59.264;18.116;2022-09-21T06:51:56;5.07;;;1.90;;
75059;SDS011;63640;59.264;18.116;2022-09-21T06:54:22;6.55;;;2.00;;
75059;SDS011;63640;59.264;18.116;2022-09-21T06:56:48;8.63;;;2.30;;
75059;SDS011;63640;59.264;18.116;2022-09-21T07:02:34;4.88;;;1.58;;
75059;SDS011;63640;59.264;18.116;2022-09-21T07:05:00;5.88;;;1.88;;
75059;SDS011;63640;59.264;18.116;2022-09-21T07:07:26;4.97;;;1.92;;
75059;SDS011;63640;59.264;18.116;2022-09-21T07:09:54;7.45;;;1.80;;
75059;SDS011;63640;59.264;18.116;2022-09-21T07:12:19;7.32;;;1.70;;
75059;SDS011;63640;59.264;18.116;2022-09-21T07:14:45;4.20;;;1.40;;
75059;SDS011;63640;59.264;18.116;2022-09-21T07:17:11;4.15;;;1.33;;
75059;SDS011;63640;59.264;18.116;2022-09-21T07:19:38;6.30;;;1.45;;
75059;SDS011;63640;59.264;18.116;2022-09-21T07:22:04;5.07;;;1.38;;
75059;SDS011;63640;59.264;18.116;2022-09-21T07:24:29;6.13;;;1.50;;
75059;SDS011;63640;59.264;18.116;2022-09-21T07:26:55;6.60;;;1.83;;
75059;SDS011;63640;59.264;18.116;2022-09-21T07:29:20;7.32;;;1.30;;
75059;SDS011;63640;59.264;18.116;2022-09-21T07:31:45;3.70;;;1.55;;
75059;SDS011;63640;59.264;18.116;2022-09-21T07:34:12;4.60;;;1.63;;
75059;SDS011;63640;59.264;18.116;2022-09-21T07:36:38;6.00;;;1.88;;
75059;SDS011;63640;59.264;18.116;2022-09-21T07:39:03;6.20;;;1.45;;
75059;SDS011;63640;59.264;18.116;2022-09-21T07:41:29;4.95;;;1.52;;
75059;SDS011;63640;59.264;18.116;2022-09-21T07:43:54;7.72;;;1.60;;
75059;SDS011;63640;59.264;18.116;2022-09-21T07:46:20;5.25;;;1.52;;
75059;SDS011;63640;59.264;18.116;2022-09-21T07:48:45;3.95;;;1.20;;
75059;SDS011;63640;59.264;18.116;2022-09-21T07:51:11;5.63;;;1.80;;
75059;SDS011;63640;59.264;18.116;2022-09-21T07:53:38;4.40;;;1.40;;
75059;SDS011;63640;59.264;18.116;2022-09-21T07:56:06;3.03;;;1.20;;
75059;SDS011;63640;59.264;18.116;2022-09-21T07:58:36;3.00;;;1.30;;
75059;SDS011;63640;59.264;18.116;2022-09-21T08:01:20;4.80;;;1.05;;
75059;SDS011;63640;59.264;18.116;2022-09-21T08:03:53;6.45;;;1.52;;
75059;SDS011;63640;59.264;18.116;2022-09-21T08:06:20;3.90;;;1.08;;
75059;SDS011;63640;59.264;18.116;2022-09-21T08:08:47;3.42;;;1.20;;
75059;SDS011;63640;59.264;18.116;2022-09-21T08:11:17;5.82;;;1.20;;
75059;SDS011;63640;59.264;18.116;2022-09-21T08:13:46;2.90;;;0.80;;
75059;SDS011;63640;59.264;18.116;2022-09-21T08:16:12;4.50;;;1.38;;
75059;SDS011;63640;59.264;18.116;2022-09-21T08:18:38;3.33;;;1.00;;
75059;SDS011;63640;59.264;18.116;2022-09-21T08:21:05;3.47;;;1.13;;
75059;SDS011;63640;59.264;18.116;2022-09-21T08:23:31;2.80;;;1.00;;
75059;SDS011;63640;59.264;18.116;2022-09-21T08:25:57;2.22;;;1.02;;
75059;SDS011;63640;59.264;18.116;2022-09-21T08:28:24;5.07;;;1.00;;
75059;SDS011;63640;59.264;18.116;2022-09-21T08:30:50;7.03;;;1.40;;
75059;SDS011;63640;59.264;18.116;2022-09-21T08:33:15;6.38;;;1.15;;
75059;SDS011;63640;59.264;18.116;2022-09-21T08:35:41;3.25;;;1.13;;
75059;SDS011;63640;59.264;18.116;2022-09-21T08:38:06;3.90;;;1.30;;
75059;SDS011;63640;59.264;18.116;2022-09-21T08:40:32;3.17;;;1.10;;
75059;SDS011;63640;59.264;18.116;2022-09-21T08:43:41;3.20;;;0.98;;
75059;SDS011;63640;59.264;18.116;2022-09-21T08:45:58;5.28;;;1.23;;
75059;SDS011;63640;59.264;18.116;2022-09-21T08:48:26;3.00;;;1.08;;
75059;SDS011;63640;59.264;18.116;2022-09-21T08:51:01;4.75;;;1.20;;
75059;SDS011;63640;59.264;18.116;2022-09-21T08:53:31;3.55;;;1.60;;
75059;SDS011;63640;59.264;18.116;2022-09-21T08:55:58;3.67;;;1.35;;
75059;SDS011;63640;59.264;18.116;2022-09-21T08:58:26;3.58;;;1.02;;
75059;SDS011;63640;59.264;18.116;2022-09-21T09:01:01;4.38;;;1.30;;
75059;SDS011;63640;59.264;18.116;2022-09-21T09:03:37;4.38;;;1.23;;
75059;SDS011;63640;59.264;18.116;2022-09-21T09:06:31;5.07;;;1.00;;
75059;SDS011;63640;59.264;18.116;2022-09-21T09:12:12;6.57;;;1.48;;
75059;SDS011;63640;59.264;18.116;2022-09-21T09:21:05;3.28;;;1.30;;
75059;SDS011;63640;59.264;18.116;2022-09-21T09:24:04;2.03;;;0.90;;
75059;SDS011;63640;59.264;18.116;2022-09-21T09:27:02;3.80;;;1.23;;
75059;SDS011;63640;59.264;18.116;2022-09-21T09:30:31;3.60;;;1.30;;
75059;SDS011;63640;59.264;18.116;2022-09-21T09:32:29;2.75;;;1.02;;
75059;SDS011;63640;59.264;18.116;2022-09-21T09:38:01;1.50;;;0.70;;
75059;SDS011;63640;59.264;18.116;2022-09-21T09:40:40;2.53;;;1.02;;
75059;SDS011;63640;59.264;18.116;2022-09-21T09:51:54;5.13;;;0.90;;
75059;SDS011;63640;59.264;18.116;2022-09-21T09:54:20;4.20;;;1.13;;
75059;SDS011;63640;59.264;18.116;2022-09-21T09:56:47;3.78;;;1.00;;
75059;SDS011;63640;59.264;18.116;2022-09-21T09:59:22;3.08;;;0.80;;
75059;SDS011;63640;59.264;18.116;2022-09-21T10:02:17;2.47;;;1.00;;
75059;SDS011;63640;59.264;18.116;2022-09-21T10:10:02;1.65;;;0.90;;
75059;SDS011;63640;59.264;18.116;2022-09-21T10:12:39;1.75;;;0.85;;
75059;SDS011;63640;59.264;18.116;2022-09-21T10:15:09;3.03;;;1.08;;
75059;SDS011;63640;59.264;18.116;2022-09-21T10:17:34;3.63;;;1.13;;
75059;SDS011;63640;59.264;18.116;2022-09-21T10:20:00;2.45;;;1.02;;
75059;SDS011;63640;59.264;18.116;2022-09-21T10:22:28;2.95;;;1.00;;
75059;SDS011;63640;59.264;18.116;2022-09-21T10:24:56;4.40;;;1.00;;
75059;SDS011;63640;59.264;18.116;2022-09-21T10:27:27;2.80;;;0.88;;
75059;SDS011;63640;59.264;18.116;2022-09-21T10:29:53;3.05;;;1.00;;
75059;SDS011;63640;59.264;18.116;2022-09-21T10:32:25;3.95;;;0.90;;
75059;SDS011;63640;59.264;18.116;2022-09-21T10:35:25;2.72;;;0.80;;
75059;SDS011;63640;59.264;18.116;2022-09-21T10:37:47;0.73;;;0.50;;
75059;SDS011;63640;59.264;18.116;2022-09-21T10:42:43;2.70;;;0.80;;
75059;SDS011;63640;59.264;18.116;2022-09-21T10:45:13;1.48;;;0.82;;
75059;SDS011;63640;59.264;18.116;2022-09-21T10:47:43;1.23;;;0.73;;
75059;SDS011;63640;59.264;18.116;2022-09-21T10:53:10;1.48;;;0.50;;
75059;SDS011;63640;59.264;18.116;2022-09-21T10:55:39;2.05;;;0.90;;
75059;SDS011;63640;59.264;18.116;2022-09-21T10:58:08;1.58;;;0.70;;
75059;SDS011;63640;59.264;18.116;2022-09-21T11:00:41;1.48;;;0.40;;
75059;SDS011;63640;59.264;18.116;2022-09-21T11:06:21;3.90;;;1.13;;
75059;SDS011;63640;59.264;18.116;2022-09-21T11:09:08;1.27;;;0.70;;
75059;SDS011;63640;59.264;18.116;2022-09-21T11:14:25;1.30;;;0.70;;
75059;SDS011;63640;59.264;18.116;2022-09-21T11:23:03;2.35;;;0.80;;
75059;SDS011;63640;59.264;18.116;2022-09-21T11:28:39;2.92;;;0.90;;
75059;SDS011;63640;59.264;18.116;2022-09-21T11:31:19;1.27;;;0.70;;
75059;SDS011;63640;59.264;18.116;2022-09-21T11:37:09;1.05;;;0.60;;
75059;SDS011;63640;59.264;18.116;2022-09-21T11:45:33;2.25;;;0.70;;
75059;SDS011;63640;59.264;18.116;2022-09-21T11:59:30;3.00;;;0.90;;
75059;SDS011;63640;59.264;18.116;2022-09-21T12:21:29;2.65;;;1.00;;
75059;SDS011;63640;59.264;18.116;2022-09-21T12:24:01;2.58;;;0.93;;
75059;SDS011;63640;59.264;18.116;2022-09-21T12:26:35;3.58;;;0.80;;
75059;SDS011;63640;59.264;18.116;2022-09-21T12:34:20;2.10;;;0.70;;
75059;SDS011;63640;59.264;18.116;2022-09-21T12:36:56;2.10;;;0.80;;
75059;SDS011;63640;59.264;18.116;2022-09-21T12:39:27;3.45;;;0.82;;
75059;SDS011;63640;59.264;18.116;2022-09-21T12:42:57;2.50;;;0.88;;
75059;SDS011;63640;59.264;18.116;2022-09-21T12:45:13;1.60;;;0.77;;
75059;SDS011;63640;59.264;18.116;2022-09-21T12:47:57;3.10;;;0.90;;
75059;SDS011;63640;59.264;18.116;2022-09-21T12:50:28;4.13;;;0.95;;
75059;SDS011;63640;59.264;18.116;2022-09-21T12:53:02;4.00;;;0.90;;
75059;SDS011;63640;59.264;18.116;2022-09-21T13:08:39;1.65;;;0.80;;
75059;SDS011;63640;59.264;18.116;2022-09-21T13:11:07;2.72;;;0.77;;
75059;SDS011;63640;59.264;18.116;2022-09-21T13:13:52;1.95;;;0.82;;
75059;SDS011;63640;59.264;18.116;2022-09-21T13:16:22;1.98;;;0.70;;
75059;SDS011;63640;59.264;18.116;2022-09-21T13:19:03;6.60;;;1.13;;
75059;SDS011;63640;59.264;18.116;2022-09-21T13:24:37;2.08;;;0.88;;
75059;SDS011;63640;59.264;18.116;2022-09-21T13:27:03;1.90;;;0.88;;
75059;SDS011;63640;59.264;18.116;2022-09-21T13:29:31;3.00;;;0.90;;
75059;SDS011;63640;59.264;18.116;2022-09-21T13:32:00;1.98;;;0.70;;
75059;SDS011;63640;59.264;18.116;2022-09-21T13:34:29;1.60;;;0.80;;
75059;SDS011;63640;59.264;18.116;2022-09-21T13:39:50;1.83;;;0.77;;
75059;SDS011;63640;59.264;18.116;2022-09-21T13:47:39;3.05;;;0.82;;
75059;SDS011;63640;59.264;18.116;2022-09-21T13:52:59;3.15;;;1.00;;
75059;SDS011;63640;59.264;18.116;2022-09-21T13:55:30;2.90;;;1.23;;
75059;SDS011;63640;59.264;18.116;2022-09-21T13:58:16;4.18;;;1.60;;
75059;SDS011;63640;59.264;18.116;2022-09-21T14:03:35;3.67;;;1.52;;
75059;SDS011;63640;59.264;18.116;2022-09-21T14:06:06;4.15;;;1.10;;
75059;SDS011;63640;59.264;18.116;2022-09-21T14:08:34;3.30;;;0.90;;
75059;SDS011;63640;59.264;18.116;2022-09-21T14:11:03;5.80;;;0.95;;
75059;SDS011;63640;59.264;18.116;2022-09-21T14:18:55;2.97;;;0.90;;
75059;SDS011;63640;59.264;18.116;2022-09-21T14:21:21;8.38;;;1.30;;
75059;SDS011;63640;59.264;18.116;2022-09-21T14:29:22;4.47;;;1.23;;
75059;SDS011;63640;59.264;18.116;2022-09-21T14:32:10;2.45;;;0.88;;
75059;SDS011;63640;59.264;18.116;2022-09-21T14:34:40;5.32;;;0.90;;
75059;SDS011;63640;59.264;18.116;2022-09-21T14:37:13;5.57;;;1.42;;
75059;SDS011;63640;59.264;18.116;2022-09-21T14:39:53;4.07;;;0.90;;
75059;SDS011;63640;59.264;18.116;2022-09-21T14:42:20;6.32;;;1.40;;
75059;SDS011;63640;59.264;18.116;2022-09-21T14:44:50;2.63;;;1.10;;
75059;SDS011;63640;59.264;18.116;2022-09-21T14:55:48;2.92;;;0.85;;
75059;SDS011;63640;59.264;18.116;2022-09-21T14:58:30;2.58;;;0.90;;
75059;SDS011;63640;59.264;18.116;2022-09-21T15:03:51;1.75;;;0.70;;
75059;SDS011;63640;59.264;18.116;2022-09-21T15:09:20;3.50;;;0.80;;
75059;SDS011;63640;59.264;18.116;2022-09-21T15:12:36;1.65;;;0.82;;
75059;SDS011;63640;59.264;18.116;2022-09-21T15:18:12;3.55;;;0.90;;
75059;SDS011;63640;59.264;18.116;2022-09-21T15:20:44;2.70;;;1.00;;
75059;SDS011;63640;59.264;18.116;2022-09-21T15:23:18;6.05;;;1.20;;
75059;SDS011;63640;59.264;18.116;2022-09-21T15:25:51;2.20;;;0.82;;
75059;SDS011;63640;59.264;18.116;2022-09-21T15:28:24;2.42;;;0.95;;
75059;SDS011;63640;59.264;18.116;2022-09-21T15:30:50;2.28;;;0.90;;
75059;SDS011;63640;59.264;18.116;2022-09-21T15:33:21;3.17;;;1.10;;
75059;SDS011;63640;59.264;18.116;2022-09-21T15:35:46;3.28;;;1.10;;
75059;SDS011;63640;59.264;18.116;2022-09-21T15:38:25;5.45;;;1.25;;
75059;SDS011;63640;59.264;18.116;2022-09-21T15:40:52;5.30;;;0.85;;
75059;SDS011;63640;59.264;18.116;2022-09-21T15:43:18;3.85;;;1.00;;
75059;SDS011;63640;59.264;18.116;2022-09-21T15:45:47;2.83;;;1.17;;
75059;SDS011;63640;59.264;18.116;2022-09-21T15:51:08;2.03;;;0.90;;
75059;SDS011;63640;59.264;18.116;2022-09-21T15:53:44;4.53;;;1.05;;
75059;SDS011;63640;59.264;18.116;2022-09-21T15:56:29;2.63;;;1.10;;
75059;SDS011;63640;59.264;18.116;2022-09-21T15:59:01;3.05;;;1.05;;
75059;SDS011;63640;59.264;18.116;2022-09-21T16:01:32;3.25;;;1.00;;
75059;SDS011;63640;59.264;18.116;2022-09-21T16:04:19;3.33;;;1.30;;
75059;SDS011;63640;59.264;18.116;2022-09-21T16:12:22;2.75;;;1.00;;
75059;SDS011;63640;59.264;18.116;2022-09-21T16:18:04;3.10;;;1.00;;
75059;SDS011;63640;59.264;18.116;2022-09-21T16:20:37;2.45;;;0.90;;
75059;SDS011;63640;59.264;18.116;2022-09-21T16:23:09;3.42;;;1.30;;
75059;SDS011;63640;59.264;18.116;2022-09-21T16:25:58;3.42;;;1.45;;
75059;SDS011;63640;59.264;18.116;2022-09-21T16:28:40;3.70;;;1.40;;
75059;SDS011;63640;59.264;18.116;2022-09-21T16:31:22;5.93;;;1.33;;
75059;SDS011;63640;59.264;18.116;2022-09-21T16:38:46;3.15;;;1.20;;
75059;SDS011;63640;59.264;18.116;2022-09-21T16:41:12;5.60;;;1.40;;
75059;SDS011;63640;59.264;18.116;2022-09-21T16:43:38;3.97;;;1.40;;
75059;SDS011;63640;59.264;18.116;2022-09-21T16:46:10;4.18;;;1.40;;
75059;SDS011;63640;59.264;18.116;2022-09-21T16:48:37;4.00;;;1.20;;
75059;SDS011;63640;59.264;18.116;2022-09-21T16:51:02;3.05;;;1.30;;
75059;SDS011;63640;59.264;18.116;2022-09-21T16:53:33;4.72;;;1.45;;
75059;SDS011;63640;59.264;18.116;2022-09-21T16:55:58;4.78;;;1.60;;
75059;SDS011;63640;59.264;18.116;2022-09-21T16:58:23;3.63;;;1.20;;
75059;SDS011;63640;59.264;18.116;2022-09-21T17:00:51;3.75;;;1.13;;
75059;SDS011;63640;59.264;18.116;2022-09-21T17:03:18;3.42;;;1.17;;
75059;SDS011;63640;59.264;18.116;2022-09-21T17:05:44;4.85;;;0.80;;
75059;SDS011;63640;59.264;18.116;2022-09-21T17:08:09;7.40;;;1.25;;
75059;SDS011;63640;59.264;18.116;2022-09-21T17:10:36;5.50;;;1.35;;
75059;SDS011;63640;59.264;18.116;2022-09-21T17:13:04;4.32;;;1.63;;
75059;SDS011;63640;59.264;18.116;2022-09-21T17:15:31;4.40;;;1.23;;
75059;SDS011;63640;59.264;18.116;2022-09-21T17:17:57;4.03;;;1.77;;
75059;SDS011;63640;59.264;18.116;2022-09-21T17:22:59;5.20;;;1.58;;
75059;SDS011;63640;59.264;18.116;2022-09-21T17:25:26;4.32;;;1.33;;
75059;SDS011;63640;59.264;18.116;2022-09-21T17:27:54;4.90;;;1.77;;
75059;SDS011;63640;59.264;18.116;2022-09-21T17:30:22;4.93;;;1.52;;
75059;SDS011;63640;59.264;18.116;2022-09-21T17:32:48;6.28;;;1.85;;
75059;SDS011;63640;59.264;18.116;2022-09-21T17:37:43;4.22;;;1.67;;
75059;SDS011;63640;59.264;18.116;2022-09-21T17:40:09;5.55;;;1.90;;
75059;SDS011;63640;59.264;18.116;2022-09-21T17:42:39;4.53;;;1.42;;
75059;SDS011;63640;59.264;18.116;2022-09-21T17:48:00;4.57;;;1.50;;
75059;SDS011;63640;59.264;18.116;2022-09-21T17:50:27;4.28;;;1.50;;
75059;SDS011;63640;59.264;18.116;2022-09-21T17:52:55;6.05;;;1.88;;
75059;SDS011;63640;59.264;18.116;2022-09-21T17:55:44;5.95;;;1.70;;
75059;SDS011;63640;59.264;18.116;2022-09-21T18:03:40;6.15;;;2.08;;
75059;SDS011;63640;59.264;18.116;2022-09-21T18:06:08;4.28;;;1.65;;
75059;SDS011;63640;59.264;18.116;2022-09-21T18:08:34;5.40;;;2.03;;
75059;SDS011;63640;59.264;18.116;2022-09-21T18:16:30;4.57;;;2.17;;
75059;SDS011;63640;59.264;18.116;2022-09-21T18:24:55;4.25;;;1.42;;
75059;SDS011;63640;59.264;18.116;2022-09-21T18:27:22;5.28;;;1.85;;
75059;SDS011;63640;59.264;18.116;2022-09-21T18:29:48;6.18;;;2.08;;
75059;SDS011;63640;59.264;18.116;2022-09-21T18:43:28;5.32;;;1.88;;
75059;SDS011;63640;59.264;18.116;2022-09-21T18:46:18;10.32;;;2.50;;
75059;SDS011;63640;59.264;18.116;2022-09-21T18:49:01;5.47;;;2.25;;
75059;SDS011;63640;59.264;18.116;2022-09-21T18:51:30;5.47;;;2.20;;
75059;SDS011;63640;59.264;18.116;2022-09-21T18:53:56;6.28;;;1.77;;
75059;SDS011;63640;59.264;18.116;2022-09-21T18:56:22;7.97;;;2.10;;
75059;SDS011;63640;59.264;18.116;2022-09-21T18:58:53;5.55;;;2.40;;
75059;SDS011;63640;59.264;18.116;2022-09-21T19:01:21;5.22;;;2.65;;